createdAt,value
2018-10-02T00:02:35.217Z,19.83
2018-10-02T00:05:03.621Z,19.63
2018-10-02T00:07:32.017Z,21.07
2018-10-02T00:10:00.386Z,20.10
2018-10-02T00:13:32.785Z,20.40
2018-10-02T00:16:01.124Z,19.83
2018-10-02T00:18:29.521Z,20.43
2018-10-02T00:20:57.882Z,20.57
2018-10-02T00:23:26.353Z,21.23
2018-10-02T00:25:54.760Z,20.10
2018-10-02T00:28:23.167Z,20.63
2018-10-02T00:30:51.542Z,22.63
2018-10-02T00:33:19.901Z,20.40
2018-10-02T00:35:48.290Z,22.20
2018-10-02T00:38:16.633Z,22.07
2018-10-02T00:40:44.944Z,22.03
2018-10-02T00:43:13.286Z,21.60
2018-10-02T00:45:41.701Z,22.17
2018-10-02T00:48:10.116Z,21.70
2018-10-02T00:50:38.440Z,21.00
2018-10-02T00:53:06.829Z,20.27
2018-10-02T00:55:35.226Z,21.17
2018-10-02T00:58:03.609Z,21.60
2018-10-02T01:00:31.949Z,20.57
2018-10-02T01:03:00.340Z,22.43
2018-10-02T01:05:28.719Z,21.10
2018-10-02T01:07:57.170Z,20.83
2018-10-02T01:10:25.485Z,20.50
2018-10-02T01:12:53.883Z,20.63
2018-10-02T01:15:22.219Z,22.43
2018-10-02T01:17:50.636Z,21.27
2018-10-02T01:20:19.021Z,21.30
2018-10-02T01:22:47.381Z,23.20
2018-10-02T01:25:15.794Z,20.10
2018-10-02T01:27:45.165Z,20.73
2018-10-02T01:30:13.562Z,20.47
2018-10-02T01:32:41.893Z,20.60
2018-10-02T01:35:10.294Z,19.93
2018-10-02T01:37:38.656Z,21.67
2018-10-02T01:40:07.033Z,20.43
2018-10-02T01:42:35.434Z,20.33
2018-10-02T01:45:03.798Z,19.57
2018-10-02T01:47:32.193Z,20.27
2018-10-02T01:50:00.544Z,19.27
2018-10-02T01:52:28.970Z,20.23
2018-10-02T01:54:57.342Z,19.57
2018-10-02T01:57:25.685Z,20.40
2018-10-02T01:59:54.086Z,20.63
2018-10-02T02:02:22.461Z,26.00
2018-10-02T02:04:50.846Z,21.33
2018-10-02T02:07:19.205Z,20.57
2018-10-02T02:21:09.638Z,20.60
2018-10-02T02:23:37.738Z,21.90
2018-10-02T02:26:05.836Z,19.40
2018-10-02T02:28:34.057Z,20.80
2018-10-02T02:31:02.193Z,20.10
2018-10-02T02:33:30.348Z,33.33
2018-10-02T02:35:58.584Z,19.60
2018-10-02T02:38:27.792Z,20.50
2018-10-02T02:40:55.922Z,19.13
2018-10-02T02:43:24.072Z,20.20
2018-10-02T02:45:52.276Z,19.80
2018-10-02T02:48:25.983Z,19.70
2018-10-02T02:51:01.471Z,19.90
2018-10-02T02:53:30.136Z,19.13
2018-10-02T02:55:59.470Z,18.40
2018-10-02T02:58:28.583Z,18.87
2018-10-02T03:00:56.759Z,19.53
2018-10-02T03:03:24.912Z,17.80
2018-10-02T03:05:52.983Z,18.20
2018-10-02T03:08:21.112Z,19.23
2018-10-02T03:10:49.426Z,19.10
2018-10-02T03:13:17.600Z,19.20
2018-10-02T03:15:45.732Z,18.23
2018-10-02T03:18:13.871Z,18.37
2018-10-02T03:20:42.027Z,18.80
2018-10-02T03:23:10.146Z,18.57
2018-10-02T03:25:38.702Z,17.80
2018-10-02T03:28:06.870Z,19.47
2018-10-02T03:30:35.065Z,18.43
2018-10-02T03:33:03.244Z,18.27
2018-10-02T03:35:31.510Z,19.00
2018-10-02T03:37:59.855Z,21.20
2018-10-02T03:40:27.987Z,19.33
2018-10-02T03:42:56.834Z,18.80
2018-10-02T03:45:25.116Z,18.97
2018-10-02T03:47:53.227Z,17.37
2018-10-02T03:50:21.355Z,17.60
2018-10-02T03:52:49.582Z,18.07
2018-10-02T03:55:18.065Z,20.10
2018-10-02T03:57:46.309Z,23.53
2018-10-02T04:00:14.847Z,19.93
2018-10-02T04:02:42.967Z,18.30
2018-10-02T04:05:11.348Z,18.17
2018-10-02T04:07:39.814Z,21.53
2018-10-02T04:10:08.211Z,18.73
2018-10-02T04:12:36.379Z,18.87
2018-10-02T04:15:05.116Z,20.77
2018-10-02T04:17:33.291Z,19.17
2018-10-02T04:20:01.438Z,20.20
2018-10-02T04:22:29.604Z,23.40
2018-10-02T04:24:57.800Z,20.23
2018-10-02T04:27:26.300Z,18.80
2018-10-02T04:29:54.387Z,18.13
2018-10-02T04:32:22.529Z,17.30
2018-10-02T04:34:50.924Z,20.03
2018-10-02T04:37:19.047Z,18.70
2018-10-02T04:39:47.416Z,18.73
2018-10-02T04:42:15.591Z,19.57
2018-10-02T04:44:43.667Z,18.50
2018-10-02T04:47:11.839Z,20.20
2018-10-02T04:49:40.046Z,18.97
2018-10-02T04:52:08.328Z,21.20
2018-10-02T04:54:36.483Z,19.13
2018-10-02T04:57:04.672Z,19.73
2018-10-02T04:59:32.808Z,19.93
2018-10-02T05:02:00.975Z,19.80
2018-10-02T05:04:29.097Z,19.60
2018-10-02T05:06:57.260Z,21.13
2018-10-02T05:09:25.444Z,20.77
2018-10-02T05:11:53.620Z,19.00
2018-10-02T05:14:21.736Z,22.03
2018-10-02T05:16:49.874Z,29.13
2018-10-02T05:19:18.041Z,23.17
2018-10-02T05:21:46.209Z,21.83
2018-10-02T05:24:14.397Z,29.40
2018-10-02T05:26:42.514Z,25.40
2018-10-02T05:29:10.804Z,25.13
2018-10-02T05:31:38.900Z,19.87
2018-10-02T05:34:07.088Z,23.07
2018-10-02T05:36:35.261Z,25.03
2018-10-02T05:39:05.107Z,24.40
2018-10-02T05:41:33.207Z,21.87
2018-10-02T05:44:01.309Z,22.00
2018-10-02T05:46:29.773Z,22.63
2018-10-02T05:48:58.008Z,22.00
2018-10-02T05:51:26.133Z,24.80
2018-10-02T05:53:54.483Z,24.83
2018-10-02T05:56:22.601Z,22.63
2018-10-02T05:58:50.806Z,23.40
2018-10-02T06:01:18.984Z,22.33
2018-10-02T06:03:47.119Z,31.30
2018-10-02T06:06:15.266Z,35.97
2018-10-02T06:08:43.336Z,24.13
2018-10-02T06:11:11.426Z,24.40
2018-10-02T06:13:39.616Z,25.30
2018-10-02T06:16:07.827Z,25.17
2018-10-02T06:18:35.960Z,32.00
2018-10-02T06:21:04.137Z,25.63
2018-10-02T06:23:32.285Z,21.23
2018-10-02T06:26:00.484Z,22.30
2018-10-02T06:28:28.609Z,28.13
2018-10-02T06:30:56.740Z,22.87
2018-10-02T06:33:24.968Z,30.43
2018-10-02T06:35:54.372Z,23.60
2018-10-02T06:38:22.542Z,21.47
2018-10-02T06:40:50.652Z,23.57
2018-10-02T06:43:18.865Z,23.20
2018-10-02T06:45:46.998Z,21.87
2018-10-02T06:48:15.159Z,21.20
2018-10-02T06:50:43.403Z,20.10
2018-10-02T06:53:11.529Z,22.77
2018-10-02T06:55:39.672Z,20.47
2018-10-02T06:58:07.761Z,21.50
2018-10-02T07:00:35.964Z,21.40
2018-10-02T07:03:04.193Z,19.67
2018-10-02T07:05:32.345Z,20.70
2018-10-02T07:08:00.433Z,22.27
2018-10-02T07:10:28.539Z,30.20
2018-10-02T07:12:56.737Z,26.17
2018-10-02T07:15:24.836Z,21.63
2018-10-02T07:17:52.985Z,21.07
2018-10-02T07:20:21.154Z,22.57
2018-10-02T07:22:49.341Z,22.27
2018-10-02T07:25:17.443Z,23.37
2018-10-02T07:27:45.634Z,22.87
2018-10-02T07:30:13.733Z,22.20
2018-10-02T07:32:41.902Z,30.57
2018-10-02T07:35:10.077Z,26.93
2018-10-02T07:37:38.264Z,24.07
2018-10-02T07:40:06.416Z,30.40
2018-10-02T07:42:34.613Z,22.00
2018-10-02T07:45:02.851Z,21.80
2018-10-02T07:47:30.946Z,22.37
2018-10-02T07:49:58.976Z,22.63
2018-10-02T07:52:27.095Z,23.87
2018-10-02T07:54:55.259Z,23.87
2018-10-02T07:57:23.488Z,28.33
2018-10-02T07:59:51.626Z,23.43
2018-10-02T08:02:19.817Z,24.10
2018-10-02T08:04:48.061Z,23.77
2018-10-02T08:07:16.147Z,24.07
2018-10-02T08:09:44.325Z,24.83
2018-10-02T08:12:12.547Z,23.03
2018-10-02T08:14:40.705Z,24.07
2018-10-02T08:17:08.825Z,32.67
2018-10-02T08:19:37.069Z,43.53
2018-10-02T08:22:05.157Z,24.87
2018-10-02T08:24:33.248Z,36.37
2018-10-02T08:27:01.518Z,25.03
2018-10-02T08:29:29.600Z,25.57
2018-10-02T08:31:58.001Z,25.30
2018-10-02T08:34:26.147Z,23.53
2018-10-02T08:36:54.511Z,33.40
2018-10-02T08:39:22.604Z,24.20
2018-10-02T08:41:50.851Z,25.47
2018-10-02T08:44:18.934Z,24.53
2018-10-02T08:46:47.009Z,24.83
2018-10-02T08:49:15.170Z,27.63
2018-10-02T08:51:43.273Z,25.83
2018-10-02T08:54:11.389Z,27.07
2018-10-02T08:56:39.875Z,24.73
2018-10-02T08:59:08.084Z,25.47
2018-10-02T09:01:36.394Z,32.40
2018-10-02T09:04:04.543Z,25.80
2018-10-02T09:06:32.698Z,24.70
2018-10-02T09:09:00.812Z,25.70
2018-10-02T09:11:28.964Z,24.43
2018-10-02T09:13:57.210Z,25.57
2018-10-02T09:16:25.347Z,30.73
2018-10-02T09:18:53.551Z,26.60
2018-10-02T09:21:21.686Z,24.90
2018-10-02T09:23:49.877Z,27.43
2018-10-02T09:26:18.033Z,27.10
2018-10-02T09:28:46.204Z,25.30
2018-10-02T09:31:20.054Z,25.67
2018-10-02T09:33:53.718Z,25.37
2018-10-02T09:36:27.352Z,27.03
2018-10-02T09:39:00.902Z,24.80
2018-10-02T09:41:34.606Z,25.93
2018-10-02T09:44:03.732Z,27.43
2018-10-02T09:46:31.880Z,26.93
2018-10-02T09:49:00.129Z,24.53
2018-10-02T09:51:28.281Z,25.50
2018-10-02T09:53:56.430Z,26.70
2018-10-02T09:56:26.406Z,24.43
2018-10-02T09:58:54.516Z,26.23
2018-10-02T10:01:28.086Z,26.43
2018-10-02T10:03:56.144Z,25.07
2018-10-02T10:06:24.302Z,24.73
2018-10-02T10:08:52.392Z,24.40
2018-10-02T10:11:20.464Z,25.60
2018-10-02T10:13:48.606Z,28.70
2018-10-02T10:16:16.716Z,27.33
2018-10-02T10:18:44.837Z,25.70
2018-10-02T10:21:12.993Z,25.67
2018-10-02T10:23:41.196Z,25.60
2018-10-02T10:26:09.360Z,26.03
2018-10-02T10:28:37.623Z,24.07
2018-10-02T10:31:05.698Z,25.50
2018-10-02T10:33:33.850Z,26.10
2018-10-02T10:36:01.900Z,25.83
2018-10-02T10:38:29.972Z,26.50
2018-10-02T10:40:58.262Z,25.97
2018-10-02T10:43:26.392Z,26.03
2018-10-02T10:45:54.751Z,26.20
2018-10-02T10:48:22.876Z,26.67
2018-10-02T10:50:50.957Z,29.50
2018-10-02T10:53:19.052Z,25.47
2018-10-02T10:55:47.187Z,26.53
2018-10-02T10:58:15.297Z,35.03
2018-10-02T11:00:43.476Z,28.03
2018-10-02T11:03:11.628Z,25.90
2018-10-02T11:05:39.691Z,28.23
2018-10-02T11:08:07.818Z,24.80
2018-10-02T11:10:35.980Z,26.20
2018-10-02T11:13:04.116Z,26.30
2018-10-02T11:15:33.244Z,26.80
2018-10-02T11:18:01.732Z,25.70
2018-10-02T11:20:32.046Z,25.37
2018-10-02T11:23:00.217Z,25.47
2018-10-02T11:25:28.506Z,25.80
2018-10-02T11:27:56.613Z,25.40
2018-10-02T11:30:24.716Z,25.77
2018-10-02T11:32:52.844Z,25.70
2018-10-02T11:35:20.996Z,25.77
2018-10-02T11:37:49.263Z,25.43
2018-10-02T11:40:17.349Z,27.00
2018-10-02T11:43:48.821Z,25.87
2018-10-02T11:46:16.981Z,27.80
2018-10-02T11:48:45.124Z,26.33
2018-10-02T11:51:13.304Z,26.00
2018-10-02T11:53:41.483Z,26.50
2018-10-02T11:56:09.643Z,25.53
2018-10-02T11:58:37.745Z,26.10
2018-10-02T12:01:05.987Z,25.57
2018-10-02T12:03:34.167Z,25.50
2018-10-02T12:06:02.565Z,26.20
2018-10-02T12:08:30.925Z,26.47
2018-10-02T12:10:59.844Z,25.60
2018-10-02T12:13:31.129Z,24.60
2018-10-02T12:16:00.178Z,25.87
2018-10-02T12:18:28.684Z,25.00
2018-10-02T12:20:57.613Z,24.67
2018-10-02T12:23:26.221Z,24.97
2018-10-02T12:25:54.822Z,30.10
2018-10-02T12:28:23.358Z,26.20
2018-10-02T12:30:51.866Z,27.53
2018-10-02T12:33:20.670Z,26.03
2018-10-02T12:35:49.733Z,26.37
2018-10-02T12:38:17.874Z,24.97
2018-10-02T12:40:46.210Z,25.67
2018-10-02T12:43:14.811Z,25.27
2018-10-02T12:45:43.161Z,25.80
2018-10-02T12:48:12.217Z,24.40
2018-10-02T12:50:40.599Z,26.40
2018-10-02T12:53:09.247Z,26.50
2018-10-02T12:55:37.533Z,26.07
2018-10-02T12:58:05.833Z,25.63
2018-10-02T13:00:34.268Z,25.63
2018-10-02T13:03:03.037Z,26.77
2018-10-02T13:05:31.151Z,27.73
2018-10-02T13:07:59.527Z,26.90
2018-10-02T13:10:27.880Z,25.90
2018-10-02T13:12:56.082Z,26.43
2018-10-02T13:15:24.229Z,27.37
2018-10-02T13:17:52.412Z,26.60
2018-10-02T13:20:20.699Z,25.53
2018-10-02T13:22:49.715Z,26.23
2018-10-02T13:25:18.258Z,26.57
2018-10-02T13:27:46.489Z,25.70
2018-10-02T13:30:14.841Z,27.43
2018-10-02T13:32:43.053Z,26.63
2018-10-02T13:35:11.182Z,27.13
2018-10-02T13:37:39.776Z,27.90
2018-10-02T13:40:08.788Z,26.87
2018-10-02T13:42:39.045Z,35.33
2018-10-02T13:45:07.788Z,25.87
2018-10-02T13:47:36.384Z,29.77
2018-10-02T13:50:05.017Z,25.40
2018-10-02T13:52:33.721Z,26.93
2018-10-02T13:55:02.206Z,26.10
2018-10-02T13:57:31.246Z,25.47
2018-10-02T14:00:00.113Z,25.80
2018-10-02T14:02:28.887Z,25.17
2018-10-02T14:04:57.190Z,25.07
2018-10-02T14:07:25.335Z,26.03
2018-10-02T14:09:53.635Z,25.50
2018-10-02T14:12:21.775Z,26.63
2018-10-02T14:14:50.042Z,26.40
2018-10-02T14:17:18.348Z,26.30
2018-10-02T14:19:46.746Z,25.10
2018-10-02T14:22:14.916Z,24.73
2018-10-02T14:24:43.150Z,25.53
2018-10-02T14:27:11.638Z,25.87
2018-10-02T14:29:40.209Z,25.77
2018-10-02T14:32:08.296Z,24.60
2018-10-02T14:34:36.701Z,25.40
2018-10-02T14:37:04.960Z,25.90
2018-10-02T14:39:33.164Z,24.80
2018-10-02T14:42:01.553Z,32.10
2018-10-02T14:44:29.962Z,25.57
2018-10-02T14:46:58.112Z,24.30
2018-10-02T14:49:26.492Z,25.07
2018-10-02T14:51:55.196Z,25.20
2018-10-02T14:54:23.793Z,24.87
2018-10-02T14:56:52.802Z,24.50
2018-10-02T14:59:21.573Z,24.77
2018-10-02T15:01:50.234Z,26.23
2018-10-02T15:04:18.903Z,24.00
2018-10-02T15:06:47.312Z,25.43
2018-10-02T15:09:17.538Z,24.30
2018-10-02T15:11:46.230Z,24.83
2018-10-02T15:14:18.030Z,24.67
2018-10-02T15:16:53.323Z,23.87
2018-10-02T15:19:21.766Z,25.53
2018-10-02T15:21:49.897Z,25.10
2018-10-02T15:24:18.214Z,25.20
2018-10-02T15:26:46.375Z,24.10
2018-10-02T15:29:14.523Z,24.40
2018-10-02T15:31:42.643Z,28.40
2018-10-02T15:34:10.774Z,24.40
2018-10-02T15:36:39.002Z,24.33
2018-10-02T15:39:08.776Z,23.93
2018-10-02T15:41:37.569Z,23.83
2018-10-02T15:44:05.843Z,24.03
2018-10-02T15:46:34.141Z,23.10
2018-10-02T15:49:02.300Z,23.63
2018-10-02T15:51:30.498Z,23.30
2018-10-02T15:53:58.644Z,23.10
2018-10-02T15:56:26.834Z,23.30
2018-10-02T15:58:54.984Z,23.70
2018-10-02T16:01:23.212Z,23.87
2018-10-02T16:03:51.320Z,25.10
2018-10-02T16:06:19.412Z,23.60
2018-10-02T16:08:47.584Z,23.53
2018-10-02T16:11:15.871Z,23.27
2018-10-02T16:13:43.983Z,23.50
2018-10-02T16:16:12.129Z,25.23
2018-10-02T16:18:40.284Z,24.43
2018-10-02T16:21:08.452Z,23.47
2018-10-02T16:23:36.681Z,23.70
2018-10-02T16:26:04.861Z,23.40
2018-10-02T16:28:32.962Z,23.33
2018-10-02T16:31:01.057Z,23.07
2018-10-02T16:33:29.243Z,23.40
2018-10-02T16:35:57.392Z,23.40
2018-10-02T16:39:29.009Z,24.17
2018-10-02T16:41:57.139Z,24.90
2018-10-02T16:44:25.279Z,24.60
2018-10-02T16:46:53.447Z,23.50
2018-10-02T16:49:21.549Z,22.83
2018-10-02T16:51:49.747Z,23.87
2018-10-02T16:54:17.989Z,23.80
2018-10-02T16:56:46.772Z,23.40
2018-10-02T16:59:14.894Z,23.20
2018-10-02T17:01:43.073Z,24.87
2018-10-02T17:04:11.380Z,23.40
2018-10-02T17:06:39.536Z,25.07
2018-10-02T17:09:08.448Z,23.10
2018-10-02T17:11:36.664Z,23.90
2018-10-02T17:14:04.847Z,22.83
2018-10-02T17:16:33.065Z,23.30
2018-10-02T17:19:01.168Z,24.23
2018-10-02T17:21:29.422Z,23.60
2018-10-02T17:23:57.510Z,23.63
2018-10-02T17:26:25.707Z,24.27
2018-10-02T17:28:54.006Z,23.60
2018-10-02T17:31:22.096Z,23.90
2018-10-02T17:33:50.282Z,22.90
2018-10-02T17:36:18.425Z,23.07
2018-10-02T17:38:46.572Z,23.33
2018-10-02T17:41:14.773Z,23.63
2018-10-02T17:43:43.034Z,21.87
2018-10-02T17:46:11.396Z,22.63
2018-10-02T17:48:39.579Z,22.10
2018-10-02T17:52:10.988Z,21.63
2018-10-02T17:54:39.088Z,25.13
2018-10-02T17:57:07.205Z,20.20
2018-10-02T17:59:35.375Z,20.63
2018-10-02T18:02:03.568Z,20.43
2018-10-02T18:04:31.721Z,20.40
2018-10-02T18:06:59.883Z,20.83
2018-10-02T18:09:28.050Z,21.20
2018-10-02T18:11:56.188Z,21.00
2018-10-02T18:14:24.342Z,20.50
2018-10-02T18:16:52.581Z,20.73
2018-10-02T18:19:20.775Z,20.70
2018-10-02T18:21:48.981Z,20.10
2018-10-02T18:24:17.304Z,19.83
2018-10-02T18:26:45.519Z,19.70
2018-10-02T18:29:13.702Z,20.30
2018-10-02T18:31:41.845Z,19.33
2018-10-02T18:34:10.017Z,20.10
2018-10-02T18:36:38.225Z,19.40
2018-10-02T18:39:07.000Z,19.63
2018-10-02T18:41:35.188Z,20.50
2018-10-02T18:44:03.323Z,19.97
2018-10-02T18:46:31.489Z,19.87
2018-10-02T18:48:59.767Z,20.87
2018-10-02T18:51:27.931Z,20.43
2018-10-02T18:53:56.222Z,21.00
2018-10-02T18:56:24.546Z,20.00
2018-10-02T18:58:52.586Z,20.07
2018-10-02T19:01:20.801Z,20.17
2018-10-02T19:03:48.949Z,21.20
2018-10-02T19:06:17.119Z,20.73
2018-10-02T19:08:50.713Z,19.93
2018-10-02T19:11:24.417Z,19.83
2018-10-02T19:13:52.611Z,19.83
2018-10-02T19:16:28.470Z,19.70
2018-10-02T19:18:56.761Z,19.50
2018-10-02T19:21:24.909Z,19.83
2018-10-02T19:23:53.132Z,20.30
2018-10-02T19:26:22.985Z,19.90
2018-10-02T19:28:51.295Z,20.17
2018-10-02T19:31:25.004Z,19.70
2018-10-02T19:33:53.224Z,20.00
2018-10-02T19:36:21.424Z,20.50
2018-10-02T19:38:55.061Z,19.40
2018-10-02T19:41:23.265Z,19.40
2018-10-02T19:43:51.400Z,19.70
2018-10-02T19:46:27.019Z,20.00
2018-10-02T19:48:55.786Z,20.53
2018-10-02T19:51:29.665Z,19.97
2018-10-02T19:53:58.599Z,20.40
2018-10-02T19:56:28.106Z,19.80
2018-10-02T19:58:56.821Z,20.20
2018-10-02T20:01:26.005Z,20.00
2018-10-02T20:03:54.823Z,20.50
2018-10-02T20:06:23.842Z,19.50
2018-10-02T20:08:52.582Z,20.60
2018-10-02T20:11:21.934Z,20.00
2018-10-02T20:13:51.608Z,20.70
2018-10-02T20:16:20.996Z,20.07
2018-10-02T20:18:49.948Z,20.27
2018-10-02T20:21:18.927Z,21.33
2018-10-02T20:23:47.613Z,20.20
2018-10-02T20:26:16.370Z,22.07
2018-10-02T20:28:44.806Z,20.93
2018-10-02T20:31:13.927Z,21.20
2018-10-02T20:33:42.878Z,20.93
2018-10-02T20:36:11.203Z,21.33
2018-10-02T20:38:39.340Z,21.07
2018-10-02T20:41:07.528Z,20.30
2018-10-02T20:43:35.876Z,21.47
2018-10-02T20:46:04.146Z,20.90
2018-10-02T20:48:32.364Z,20.73
2018-10-02T20:51:00.580Z,20.90
2018-10-02T20:53:28.891Z,21.83
2018-10-02T20:55:57.312Z,22.20
2018-10-02T20:58:25.772Z,23.43
2018-10-02T21:00:54.225Z,21.97
2018-10-02T21:03:22.691Z,22.10
2018-10-02T21:05:50.868Z,22.00
2018-10-02T21:08:19.301Z,22.17
2018-10-02T21:10:47.526Z,22.00
2018-10-02T21:13:15.844Z,22.00
2018-10-02T21:15:44.314Z,22.13
2018-10-02T21:18:12.731Z,21.73
2018-10-02T21:20:41.546Z,21.77
2018-10-02T21:23:09.853Z,21.47
2018-10-02T21:25:38.001Z,21.33
2018-10-02T21:28:06.384Z,21.33
2018-10-02T21:30:34.501Z,21.07
2018-10-02T21:33:02.706Z,21.90
2018-10-02T21:35:30.933Z,20.80
2018-10-02T21:37:59.239Z,19.57
2018-10-02T21:40:27.567Z,20.40
2018-10-02T21:42:55.734Z,20.73
2018-10-02T21:45:23.883Z,20.77
2018-10-02T21:47:52.212Z,20.73
2018-10-02T21:50:20.314Z,19.87
2018-10-02T21:52:48.498Z,20.73
2018-10-02T21:55:17.649Z,20.67
2018-10-02T21:57:45.816Z,21.03
2018-10-02T22:00:14.069Z,20.13
2018-10-02T22:02:42.349Z,19.93
2018-10-02T22:05:10.530Z,20.00
2018-10-02T22:11:10.175Z,20.73
2018-10-02T22:13:38.444Z,20.83
2018-10-02T22:16:06.629Z,19.60
2018-10-02T22:18:34.942Z,20.80
2018-10-02T22:21:04.143Z,21.53
2018-10-02T22:23:32.304Z,21.03
2018-10-02T22:26:00.543Z,19.70
2018-10-02T22:28:28.647Z,22.03
2018-10-02T22:30:56.752Z,20.93
2018-10-02T22:33:24.936Z,24.07
2018-10-02T22:35:53.103Z,23.63
2018-10-02T22:38:21.544Z,22.30
2018-10-02T22:40:49.643Z,21.13
2018-10-02T22:43:17.800Z,22.00
2018-10-02T22:45:46.033Z,21.33
2018-10-02T22:48:14.173Z,21.30
2018-10-02T22:50:42.349Z,22.83
2018-10-02T22:53:10.524Z,20.57
2018-10-02T22:55:38.656Z,21.23
2018-10-02T22:58:06.828Z,21.00
2018-10-02T23:00:35.157Z,20.97
2018-10-02T23:03:03.369Z,21.00
2018-10-02T23:05:31.469Z,23.93
2018-10-02T23:07:59.657Z,20.90
2018-10-02T23:10:27.786Z,20.60
2018-10-02T23:12:57.014Z,22.70
2018-10-02T23:15:25.158Z,21.60
2018-10-02T23:17:54.555Z,20.63
2018-10-02T23:20:23.009Z,22.93
2018-10-02T23:22:51.232Z,20.87
2018-10-02T23:25:19.374Z,20.63
2018-10-02T23:27:47.542Z,26.63
2018-10-02T23:30:15.741Z,22.80
2018-10-02T23:32:43.916Z,25.87
2018-10-02T23:35:12.105Z,22.50
2018-10-02T23:37:40.732Z,21.90
2018-10-02T23:40:08.846Z,22.13
2018-10-02T23:42:37.072Z,22.50
2018-10-02T23:45:05.592Z,21.97
2018-10-02T23:47:33.796Z,23.67
2018-10-02T23:50:01.956Z,21.93
2018-10-02T23:52:30.116Z,24.27
2018-10-02T23:54:58.276Z,22.27
2018-10-02T23:57:26.397Z,21.47
2018-10-02T23:59:54.553Z,22.30
